createdAt,value
2022-08-20T00:02:15.780Z,6.97
2022-08-20T00:04:44.876Z,7.15
2022-08-20T00:07:15.494Z,8.13
2022-08-20T00:09:45.733Z,7.88
2022-08-20T00:12:18.270Z,8.10
2022-08-20T00:14:46.730Z,8.15
2022-08-20T00:17:17.326Z,8.18
2022-08-20T00:19:46.069Z,9.70
2022-08-20T00:22:14.966Z,7.25
2022-08-20T00:24:47.034Z,8.27
2022-08-20T00:27:15.235Z,9.25
2022-08-20T00:29:44.825Z,9.15
2022-08-20T00:32:13.070Z,8.95
2022-08-20T00:34:42.871Z,9.32
2022-08-20T00:37:11.887Z,9.57
2022-08-20T00:39:41.128Z,9.30
2022-08-20T00:42:09.670Z,8.68
2022-08-20T00:44:44.189Z,9.40
2022-08-20T00:47:12.391Z,9.35
2022-08-20T00:49:40.965Z,9.40
2022-08-20T00:52:16.599Z,9.20
2022-08-20T00:54:49.599Z,9.93
2022-08-20T00:57:24.168Z,9.73
2022-08-20T00:59:54.005Z,10.65
2022-08-20T01:02:25.816Z,10.45
2022-08-20T01:04:55.644Z,10.40
2022-08-20T01:07:33.361Z,11.00
2022-08-20T01:10:07.166Z,11.32
2022-08-20T01:12:36.275Z,12.02
2022-08-20T01:15:05.729Z,11.95
2022-08-20T01:17:37.454Z,11.43
2022-08-20T01:20:11.611Z,13.75
2022-08-20T01:23:14.721Z,10.88
2022-08-20T01:25:48.479Z,10.30
2022-08-20T01:28:20.049Z,10.27
2022-08-20T01:30:48.769Z,9.07
2022-08-20T01:33:19.180Z,9.30
2022-08-20T01:35:47.850Z,8.90
2022-08-20T01:38:16.594Z,8.63
2022-08-20T01:40:52.444Z,8.95
2022-08-20T01:43:22.055Z,9.30
2022-08-20T01:45:53.325Z,8.10
2022-08-20T01:48:23.060Z,8.43
2022-08-20T01:51:14.318Z,7.93
2022-08-20T01:53:47.055Z,7.82
2022-08-20T01:56:20.155Z,8.55
2022-08-20T01:58:55.944Z,8.05
2022-08-20T02:01:46.013Z,7.82
2022-08-20T02:04:17.375Z,8.32
2022-08-20T02:06:56.216Z,8.00
2022-08-20T02:09:27.957Z,8.07
2022-08-20T02:11:58.224Z,7.80
2022-08-20T02:14:28.083Z,7.75
2022-08-20T02:16:58.984Z,7.90
2022-08-20T02:19:32.904Z,7.55
2022-08-20T02:22:07.649Z,7.47
2022-08-20T02:24:36.069Z,7.65
2022-08-20T02:27:04.579Z,7.05
2022-08-20T02:29:33.134Z,7.57
2022-08-20T02:32:24.490Z,9.43
2022-08-20T02:34:50.219Z,7.82
2022-08-20T02:37:18.959Z,8.15
2022-08-20T02:39:48.009Z,8.75
2022-08-20T02:42:17.166Z,8.15
2022-08-20T02:44:45.455Z,8.63
2022-08-20T02:47:13.679Z,8.13
2022-08-20T02:49:41.666Z,7.63
2022-08-20T02:52:10.016Z,7.97
2022-08-20T02:54:38.298Z,10.05
2022-08-20T02:57:12.154Z,7.68
2022-08-20T02:59:40.562Z,7.70
2022-08-20T03:02:08.829Z,8.05
2022-08-20T03:04:37.592Z,7.88
2022-08-20T03:07:07.180Z,7.65
2022-08-20T03:09:35.255Z,7.47
2022-08-20T03:12:05.476Z,7.53
2022-08-20T03:14:34.959Z,8.27
2022-08-20T03:17:03.130Z,8.23
2022-08-20T03:19:31.339Z,7.95
2022-08-20T03:21:59.954Z,7.78
2022-08-20T03:24:28.111Z,8.27
2022-08-20T03:26:56.720Z,7.75
2022-08-20T03:29:25.144Z,9.45
2022-08-20T03:31:53.915Z,8.68
2022-08-20T03:34:22.425Z,10.15
2022-08-20T03:36:50.621Z,9.45
2022-08-20T03:39:19.455Z,9.65
2022-08-20T03:41:48.295Z,9.60
2022-08-20T03:44:16.529Z,9.95
2022-08-20T03:46:45.287Z,10.13
2022-08-20T03:49:14.124Z,10.00
2022-08-20T03:51:56.209Z,10.63
2022-08-20T03:54:31.776Z,9.80
2022-08-20T03:57:03.786Z,11.90
2022-08-20T03:59:42.408Z,14.90
2022-08-20T04:02:12.820Z,12.02
2022-08-20T04:04:41.865Z,11.65
2022-08-20T04:07:13.668Z,12.20
2022-08-20T04:09:42.384Z,12.93
2022-08-20T04:12:14.394Z,13.18
2022-08-20T04:14:43.361Z,13.00
2022-08-20T04:17:14.985Z,14.05
2022-08-20T04:19:45.184Z,14.43
2022-08-20T04:22:16.780Z,12.98
2022-08-20T04:24:45.099Z,12.13
2022-08-20T04:27:15.459Z,12.88
2022-08-20T04:29:45.219Z,12.88
2022-08-20T04:32:13.860Z,14.52
2022-08-20T04:34:42.101Z,14.15
2022-08-20T04:37:16.932Z,14.40
2022-08-20T04:39:46.321Z,16.85
2022-08-20T04:42:15.101Z,15.65
2022-08-20T04:44:43.780Z,15.80
2022-08-20T04:47:12.605Z,15.95
2022-08-20T04:49:40.972Z,16.48
2022-08-20T04:52:11.604Z,16.75
2022-08-20T04:54:39.965Z,15.48
2022-08-20T04:57:08.085Z,16.70
2022-08-20T04:59:37.807Z,15.13
2022-08-20T05:02:08.090Z,17.05
2022-08-20T05:04:38.484Z,17.48
2022-08-20T05:07:07.409Z,18.27
2022-08-20T05:09:44.074Z,18.35
2022-08-20T05:12:15.819Z,19.17
2022-08-20T05:14:44.574Z,19.27
2022-08-20T05:17:15.455Z,20.35
2022-08-20T05:19:44.731Z,19.75
2022-08-20T05:22:12.980Z,20.77
2022-08-20T05:24:42.699Z,19.00
2022-08-20T05:27:14.236Z,18.55
2022-08-20T05:29:55.615Z,18.92
2022-08-20T05:32:24.799Z,20.60
2022-08-20T19:11:03.929Z,2.67
2022-08-20T19:13:51.540Z,1.83
2022-08-20T19:16:27.798Z,3.08
2022-08-20T19:21:33.195Z,1.70
2022-08-20T19:24:07.185Z,2.38
2022-08-20T19:27:05.281Z,3.22
2022-08-20T19:29:36.454Z,2.17
2022-08-20T19:32:09.533Z,2.10
2022-08-20T19:34:38.454Z,2.58
2022-08-20T19:37:35.434Z,1.50
2022-08-20T19:40:07.793Z,2.72
2022-08-20T19:42:43.739Z,1.67
2022-08-20T19:45:24.939Z,2.33
2022-08-20T19:48:27.068Z,2.00
2022-08-20T19:51:07.514Z,2.25
2022-08-20T19:53:37.929Z,2.63
2022-08-20T19:56:22.725Z,2.22
2022-08-20T19:59:06.440Z,2.03
2022-08-20T20:01:35.929Z,2.50
2022-08-20T20:04:08.060Z,3.15
2022-08-20T20:06:42.499Z,2.42
2022-08-20T20:09:29.263Z,2.88
2022-08-20T20:12:03.521Z,2.70
2022-08-20T20:14:37.098Z,2.70
2022-08-20T20:17:14.471Z,1.70
2022-08-20T20:19:57.941Z,3.38
2022-08-20T20:22:36.749Z,2.63
2022-08-20T20:25:20.269Z,2.10
2022-08-20T20:27:52.461Z,3.03
2022-08-20T20:30:33.039Z,5.32
2022-08-20T20:33:12.149Z,3.60
2022-08-20T20:35:40.949Z,3.85
2022-08-20T20:38:13.769Z,3.78
2022-08-20T20:40:48.419Z,3.40
2022-08-20T20:43:33.982Z,2.67
2022-08-20T20:46:16.850Z,4.05
2022-08-20T20:48:52.858Z,4.72
2022-08-20T20:51:43.037Z,3.67
2022-08-20T20:54:44.492Z,3.55
2022-08-20T20:57:18.885Z,2.53
2022-08-20T21:00:01.063Z,2.95
2022-08-20T21:02:29.216Z,2.75
2022-08-20T21:04:59.090Z,2.70
2022-08-20T21:07:27.529Z,3.25
2022-08-20T21:09:57.535Z,2.95
2022-08-20T21:12:26.075Z,3.42
2022-08-20T21:14:54.580Z,4.38
2022-08-20T21:17:23.389Z,3.85
2022-08-20T21:19:52.654Z,3.47
2022-08-20T21:22:21.695Z,4.00
2022-08-20T21:24:52.039Z,5.25
2022-08-20T21:27:24.010Z,4.30
2022-08-20T21:29:53.619Z,4.68
2022-08-20T21:32:22.725Z,4.18
2022-08-20T21:34:52.099Z,4.28
2022-08-20T21:37:20.730Z,3.70
2022-08-20T21:39:49.605Z,5.05
2022-08-20T21:42:29.398Z,4.20
2022-08-20T21:44:59.656Z,3.42
2022-08-20T21:47:28.439Z,3.65
2022-08-20T21:49:57.159Z,5.10
2022-08-20T21:52:25.955Z,4.30
2022-08-20T21:54:54.646Z,3.67
2022-08-20T21:57:33.941Z,4.15
2022-08-20T22:00:10.434Z,3.83
2022-08-20T22:02:38.700Z,4.05
2022-08-20T22:05:07.901Z,3.60
2022-08-20T22:07:36.825Z,3.55
2022-08-20T22:10:05.915Z,5.03
2022-08-20T22:12:34.729Z,3.50
2022-08-20T22:15:03.771Z,3.40
2022-08-20T22:17:32.505Z,3.90
2022-08-20T22:20:01.074Z,4.32
2022-08-20T22:22:29.897Z,3.97
2022-08-20T22:24:58.590Z,5.88
2022-08-20T22:27:26.739Z,4.75
2022-08-20T22:29:56.072Z,4.38
2022-08-20T22:32:34.366Z,4.13
2022-08-20T22:35:13.520Z,3.97
2022-08-20T22:37:42.064Z,5.07
2022-08-20T22:40:11.946Z,4.30
2022-08-20T22:42:40.663Z,4.53
2022-08-20T22:45:12.319Z,5.18
2022-08-20T22:47:44.118Z,4.90
2022-08-20T22:50:14.613Z,5.28
2022-08-20T22:52:44.293Z,4.90
2022-08-20T22:55:13.658Z,4.97
2022-08-20T22:57:42.553Z,4.88
2022-08-20T23:00:14.879Z,6.38
2022-08-20T23:02:45.559Z,5.68
2022-08-20T23:05:17.449Z,4.88
2022-08-20T23:07:47.864Z,5.68
2022-08-20T23:10:19.710Z,5.13
2022-08-20T23:12:48.684Z,5.70
2022-08-20T23:15:17.628Z,5.32
2022-08-20T23:17:46.624Z,5.00
2022-08-20T23:20:17.780Z,4.95
2022-08-20T23:22:46.409Z,5.07
2022-08-20T23:25:15.060Z,4.93
2022-08-20T23:27:49.283Z,4.97
2022-08-20T23:30:20.460Z,6.18
2022-08-20T23:32:49.328Z,6.10
2022-08-20T23:35:18.634Z,5.30
2022-08-20T23:37:51.578Z,5.55
2022-08-20T23:40:28.109Z,5.50
2022-08-20T23:42:58.798Z,5.55
2022-08-20T23:45:28.529Z,5.80
2022-08-20T23:47:57.119Z,5.45
2022-08-20T23:50:29.290Z,5.00
2022-08-20T23:52:59.029Z,4.70
2022-08-20T23:55:27.833Z,5.97
2022-08-20T23:57:56.536Z,5.40
